sensor_id;sensor_type;location;lat;lon;timestamp;P1;durP1;ratioP1;P2;durP2;ratioP2
76712;SDS011;65640;43.154;25.658;2023-03-12T00:00:48;10.07;;;1.40;;
76712;SDS011;65640;43.154;25.658;2023-03-12T00:03:14;6.43;;;0.90;;
76712;SDS011;65640;43.154;25.658;2023-03-12T00:05:41;1.85;;;0.85;;
76712;SDS011;65640;43.154;25.658;2023-03-12T00:08:07;3.80;;;1.23;;
76712;SDS011;65640;43.154;25.658;2023-03-12T00:10:34;2.50;;;0.80;;
76712;SDS011;65640;43.154;25.658;2023-03-12T00:12:59;2.63;;;0.93;;
76712;SDS011;65640;43.154;25.658;2023-03-12T00:15:25;8.95;;;2.08;;
76712;SDS011;65640;43.154;25.658;2023-03-12T00:17:51;4.50;;;1.13;;
76712;SDS011;65640;43.154;25.658;2023-03-12T00:20:16;7.20;;;1.20;;
76712;SDS011;65640;43.154;25.658;2023-03-12T00:22:42;1.55;;;1.17;;
76712;SDS011;65640;43.154;25.658;2023-03-12T00:25:12;13.18;;;1.90;;
76712;SDS011;65640;43.154;25.658;2023-03-12T00:27:39;4.05;;;1.33;;
76712;SDS011;65640;43.154;25.658;2023-03-12T00:30:06;8.32;;;1.33;;
76712;SDS011;65640;43.154;25.658;2023-03-12T00:32:32;5.07;;;1.00;;
76712;SDS011;65640;43.154;25.658;2023-03-12T00:34:58;4.22;;;0.80;;
76712;SDS011;65640;43.154;25.658;2023-03-12T00:37:24;9.85;;;1.40;;
76712;SDS011;65640;43.154;25.658;2023-03-12T00:39:49;6.03;;;1.70;;
76712;SDS011;65640;43.154;25.658;2023-03-12T00:42:15;2.90;;;1.10;;
76712;SDS011;65640;43.154;25.658;2023-03-12T00:44:41;8.70;;;1.00;;
76712;SDS011;65640;43.154;25.658;2023-03-12T00:47:08;8.25;;;1.30;;
76712;SDS011;65640;43.154;25.658;2023-03-12T00:49:33;8.65;;;1.58;;
76712;SDS011;65640;43.154;25.658;2023-03-12T00:51:59;7.97;;;1.50;;
76712;SDS011;65640;43.154;25.658;2023-03-12T00:54:24;4.93;;;1.35;;
76712;SDS011;65640;43.154;25.658;2023-03-12T00:56:50;4.82;;;1.23;;
76712;SDS011;65640;43.154;25.658;2023-03-12T00:59:15;9.77;;;1.27;;
76712;SDS011;65640;43.154;25.658;2023-03-12T01:01:41;8.80;;;1.30;;
76712;SDS011;65640;43.154;25.658;2023-03-12T01:04:07;9.48;;;1.77;;
76712;SDS011;65640;43.154;25.658;2023-03-12T01:06:33;11.00;;;1.23;;
76712;SDS011;65640;43.154;25.658;2023-03-12T01:08:59;1.52;;;1.10;;
76712;SDS011;65640;43.154;25.658;2023-03-12T01:11:26;7.40;;;0.95;;
76712;SDS011;65640;43.154;25.658;2023-03-12T01:13:51;3.15;;;1.20;;
76712;SDS011;65640;43.154;25.658;2023-03-12T01:16:17;5.13;;;1.30;;
76712;SDS011;65640;43.154;25.658;2023-03-12T01:18:42;16.05;;;1.70;;
76712;SDS011;65640;43.154;25.658;2023-03-12T01:21:08;4.72;;;1.15;;
76712;SDS011;65640;43.154;25.658;2023-03-12T01:23:33;11.90;;;1.77;;
76712;SDS011;65640;43.154;25.658;2023-03-12T01:25:58;17.58;;;1.77;;
76712;SDS011;65640;43.154;25.658;2023-03-12T01:28:24;4.95;;;1.13;;
76712;SDS011;65640;43.154;25.658;2023-03-12T01:30:51;7.75;;;1.42;;
76712;SDS011;65640;43.154;25.658;2023-03-12T01:33:16;6.05;;;1.23;;
76712;SDS011;65640;43.154;25.658;2023-03-12T01:35:42;4.85;;;1.35;;
76712;SDS011;65640;43.154;25.658;2023-03-12T01:38:12;4.45;;;1.10;;
76712;SDS011;65640;43.154;25.658;2023-03-12T01:40:40;6.88;;;1.42;;
76712;SDS011;65640;43.154;25.658;2023-03-12T01:43:49;5.88;;;1.33;;
76712;SDS011;65640;43.154;25.658;2023-03-12T01:56:59;6.88;;;1.38;;
76712;SDS011;65640;43.154;25.658;2023-03-12T01:59:36;4.00;;;1.40;;
76712;SDS011;65640;43.154;25.658;2023-03-12T02:02:04;4.35;;;1.23;;
76712;SDS011;65640;43.154;25.658;2023-03-12T02:04:30;1.98;;;0.90;;
76712;SDS011;65640;43.154;25.658;2023-03-12T02:07:07;3.88;;;0.82;;
76712;SDS011;65640;43.154;25.658;2023-03-12T02:09:53;3.92;;;1.17;;
76712;SDS011;65640;43.154;25.658;2023-03-12T02:12:18;3.65;;;1.73;;
76712;SDS011;65640;43.154;25.658;2023-03-12T02:14:43;5.43;;;1.42;;
76712;SDS011;65640;43.154;25.658;2023-03-12T02:17:09;7.85;;;1.55;;
76712;SDS011;65640;43.154;25.658;2023-03-12T02:22:10;2.95;;;1.73;;
76712;SDS011;65640;43.154;25.658;2023-03-12T02:27:44;7.22;;;2.22;;
76712;SDS011;65640;43.154;25.658;2023-03-12T02:30:10;9.75;;;1.40;;
76712;SDS011;65640;43.154;25.658;2023-03-12T02:32:40;5.97;;;1.30;;
76712;SDS011;65640;43.154;25.658;2023-03-12T02:35:08;12.05;;;1.42;;
76712;SDS011;65640;43.154;25.658;2023-03-12T02:37:34;3.13;;;1.60;;
76712;SDS011;65640;43.154;25.658;2023-03-12T02:40:03;3.28;;;1.65;;
76712;SDS011;65640;43.154;25.658;2023-03-12T02:42:31;6.03;;;3.67;;
76712;SDS011;65640;43.154;25.658;2023-03-12T02:44:57;2.78;;;1.45;;
76712;SDS011;65640;43.154;25.658;2023-03-12T02:47:23;1.83;;;1.35;;
76712;SDS011;65640;43.154;25.658;2023-03-12T02:49:48;2.60;;;1.10;;
76712;SDS011;65640;43.154;25.658;2023-03-12T02:52:13;4.75;;;1.15;;
76712;SDS011;65640;43.154;25.658;2023-03-12T02:54:39;1.65;;;1.08;;
76712;SDS011;65640;43.154;25.658;2023-03-12T02:57:06;2.03;;;1.08;;
76712;SDS011;65640;43.154;25.658;2023-03-12T02:59:31;5.97;;;1.63;;
76712;SDS011;65640;43.154;25.658;2023-03-12T03:01:57;4.03;;;1.52;;
76712;SDS011;65640;43.154;25.658;2023-03-12T03:06:49;7.05;;;1.05;;
76712;SDS011;65640;43.154;25.658;2023-03-12T03:09:15;2.88;;;1.70;;
76712;SDS011;65640;43.154;25.658;2023-03-12T03:11:41;5.43;;;1.90;;
76712;SDS011;65640;43.154;25.658;2023-03-12T03:14:06;3.90;;;1.60;;
76712;SDS011;65640;43.154;25.658;2023-03-12T03:16:32;1.40;;;1.30;;
76712;SDS011;65640;43.154;25.658;2023-03-12T03:18:58;4.82;;;1.50;;
76712;SDS011;65640;43.154;25.658;2023-03-12T03:21:23;2.33;;;1.02;;
76712;SDS011;65640;43.154;25.658;2023-03-12T03:23:49;2.97;;;1.38;;
76712;SDS011;65640;43.154;25.658;2023-03-12T03:26:15;2.80;;;1.42;;
76712;SDS011;65640;43.154;25.658;2023-03-12T03:28:45;4.50;;;1.55;;
76712;SDS011;65640;43.154;25.658;2023-03-12T03:31:11;2.30;;;2.10;;
76712;SDS011;65640;43.154;25.658;2023-03-12T03:33:37;3.55;;;0.95;;
76712;SDS011;65640;43.154;25.658;2023-03-12T03:36:04;2.58;;;1.38;;
76712;SDS011;65640;43.154;25.658;2023-03-12T03:38:31;5.05;;;1.40;;
76712;SDS011;65640;43.154;25.658;2023-03-12T03:40:57;4.68;;;1.65;;
76712;SDS011;65640;43.154;25.658;2023-03-12T03:43:23;2.05;;;1.45;;
76712;SDS011;65640;43.154;25.658;2023-03-12T03:45:55;4.43;;;1.38;;
76712;SDS011;65640;43.154;25.658;2023-03-12T03:48:22;2.25;;;1.15;;
76712;SDS011;65640;43.154;25.658;2023-03-12T03:50:47;5.50;;;1.73;;
76712;SDS011;65640;43.154;25.658;2023-03-12T03:53:13;2.90;;;1.38;;
76712;SDS011;65640;43.154;25.658;2023-03-12T03:55:38;2.17;;;1.20;;
76712;SDS011;65640;43.154;25.658;2023-03-12T03:58:04;6.07;;;1.27;;
76712;SDS011;65640;43.154;25.658;2023-03-12T04:00:30;6.47;;;1.33;;
76712;SDS011;65640;43.154;25.658;2023-03-12T04:02:56;3.17;;;0.93;;
76712;SDS011;65640;43.154;25.658;2023-03-12T04:05:21;6.85;;;1.35;;
76712;SDS011;65640;43.154;25.658;2023-03-12T04:07:47;2.15;;;1.00;;
76712;SDS011;65640;43.154;25.658;2023-03-12T04:10:12;7.18;;;1.10;;
76712;SDS011;65640;43.154;25.658;2023-03-12T04:12:38;8.77;;;1.38;;
76712;SDS011;65640;43.154;25.658;2023-03-12T04:15:03;2.00;;;0.98;;
76712;SDS011;65640;43.154;25.658;2023-03-12T04:17:30;1.10;;;0.90;;
76712;SDS011;65640;43.154;25.658;2023-03-12T04:19:55;1.98;;;1.13;;
76712;SDS011;65640;43.154;25.658;2023-03-12T04:22:21;2.63;;;1.10;;
76712;SDS011;65640;43.154;25.658;2023-03-12T04:24:46;4.28;;;1.02;;
76712;SDS011;65640;43.154;25.658;2023-03-12T04:27:12;1.20;;;1.10;;
76712;SDS011;65640;43.154;25.658;2023-03-12T04:29:37;2.47;;;1.02;;
76712;SDS011;65640;43.154;25.658;2023-03-12T04:32:06;3.10;;;1.33;;
76712;SDS011;65640;43.154;25.658;2023-03-12T04:34:32;1.42;;;1.20;;
76712;SDS011;65640;43.154;25.658;2023-03-12T04:36:59;3.58;;;1.20;;
76712;SDS011;65640;43.154;25.658;2023-03-12T04:39:25;4.03;;;1.77;;
76712;SDS011;65640;43.154;25.658;2023-03-12T04:41:50;3.78;;;2.00;;
76712;SDS011;65640;43.154;25.658;2023-03-12T04:44:16;3.03;;;1.00;;
76712;SDS011;65640;43.154;25.658;2023-03-12T04:46:41;4.45;;;1.10;;
76712;SDS011;65640;43.154;25.658;2023-03-12T04:49:07;5.22;;;1.17;;
76712;SDS011;65640;43.154;25.658;2023-03-12T04:51:33;2.35;;;1.00;;
76712;SDS011;65640;43.154;25.658;2023-03-12T04:53:58;1.17;;;1.05;;
76712;SDS011;65640;43.154;25.658;2023-03-12T04:56:24;6.38;;;1.45;;
76712;SDS011;65640;43.154;25.658;2023-03-12T04:58:50;2.15;;;1.00;;
76712;SDS011;65640;43.154;25.658;2023-03-12T05:01:35;1.75;;;1.35;;
76712;SDS011;65640;43.154;25.658;2023-03-12T05:04:01;2.67;;;1.15;;
76712;SDS011;65640;43.154;25.658;2023-03-12T05:06:27;1.52;;;1.08;;
76712;SDS011;65640;43.154;25.658;2023-03-12T05:08:53;1.00;;;0.95;;
76712;SDS011;65640;43.154;25.658;2023-03-12T05:11:18;3.22;;;1.10;;
76712;SDS011;65640;43.154;25.658;2023-03-12T05:13:44;1.08;;;0.98;;
76712;SDS011;65640;43.154;25.658;2023-03-12T05:16:10;1.15;;;1.05;;
76712;SDS011;65640;43.154;25.658;2023-03-12T05:18:36;0.98;;;0.98;;
76712;SDS011;65640;43.154;25.658;2023-03-12T05:21:11;3.90;;;2.75;;
76712;SDS011;65640;43.154;25.658;2023-03-12T05:23:38;0.77;;;0.77;;
76712;SDS011;65640;43.154;25.658;2023-03-12T05:26:06;3.28;;;1.20;;
76712;SDS011;65640;43.154;25.658;2023-03-12T05:28:39;1.05;;;0.98;;
76712;SDS011;65640;43.154;25.658;2023-03-12T05:31:06;4.93;;;1.20;;
76712;SDS011;65640;43.154;25.658;2023-03-12T05:33:34;1.45;;;1.20;;
76712;SDS011;65640;43.154;25.658;2023-03-12T05:35:59;2.92;;;1.20;;
76712;SDS011;65640;43.154;25.658;2023-03-12T05:38:24;1.42;;;1.33;;
76712;SDS011;65640;43.154;25.658;2023-03-12T05:40:53;2.42;;;1.52;;
76712;SDS011;65640;43.154;25.658;2023-03-12T05:43:20;3.35;;;1.25;;
76712;SDS011;65640;43.154;25.658;2023-03-12T05:45:46;1.40;;;1.30;;
76712;SDS011;65640;43.154;25.658;2023-03-12T05:48:12;3.83;;;2.00;;
76712;SDS011;65640;43.154;25.658;2023-03-12T05:50:37;1.55;;;1.33;;
76712;SDS011;65640;43.154;25.658;2023-03-12T05:53:02;3.08;;;1.33;;
76712;SDS011;65640;43.154;25.658;2023-03-12T05:55:28;3.13;;;1.13;;
76712;SDS011;65640;43.154;25.658;2023-03-12T05:57:53;1.60;;;1.45;;
76712;SDS011;65640;43.154;25.658;2023-03-12T06:00:19;3.72;;;1.42;;
76712;SDS011;65640;43.154;25.658;2023-03-12T06:02:45;1.75;;;1.55;;
76712;SDS011;65640;43.154;25.658;2023-03-12T06:05:10;0.90;;;0.70;;
76712;SDS011;65640;43.154;25.658;2023-03-12T06:07:37;6.35;;;2.83;;
76712;SDS011;65640;43.154;25.658;2023-03-12T06:10:02;2.53;;;1.50;;
76712;SDS011;65640;43.154;25.658;2023-03-12T06:12:28;1.27;;;1.17;;
76712;SDS011;65640;43.154;25.658;2023-03-12T06:14:53;1.30;;;1.20;;
76712;SDS011;65640;43.154;25.658;2023-03-12T06:17:19;2.00;;;1.40;;
76712;SDS011;65640;43.154;25.658;2023-03-12T06:19:44;1.48;;;1.35;;
76712;SDS011;65640;43.154;25.658;2023-03-12T06:22:10;2.97;;;1.30;;
76712;SDS011;65640;43.154;25.658;2023-03-12T06:24:35;1.27;;;1.15;;
76712;SDS011;65640;43.154;25.658;2023-03-12T06:27:01;2.67;;;1.23;;
76712;SDS011;65640;43.154;25.658;2023-03-12T06:29:26;1.40;;;1.00;;
76712;SDS011;65640;43.154;25.658;2023-03-12T06:31:51;1.58;;;1.48;;
76712;SDS011;65640;43.154;25.658;2023-03-12T06:34:17;3.13;;;1.20;;
76712;SDS011;65640;43.154;25.658;2023-03-12T06:36:43;3.67;;;1.80;;
76712;SDS011;65640;43.154;25.658;2023-03-12T06:39:08;3.00;;;1.30;;
76712;SDS011;65640;43.154;25.658;2023-03-12T06:41:34;1.38;;;1.27;;
76712;SDS011;65640;43.154;25.658;2023-03-12T06:44:00;3.38;;;1.55;;
76712;SDS011;65640;43.154;25.658;2023-03-12T06:46:30;4.00;;;1.48;;
76712;SDS011;65640;43.154;25.658;2023-03-12T06:48:56;2.70;;;1.73;;
76712;SDS011;65640;43.154;25.658;2023-03-12T06:51:21;1.65;;;1.55;;
76712;SDS011;65640;43.154;25.658;2023-03-12T06:53:47;1.67;;;1.58;;
76712;SDS011;65640;43.154;25.658;2023-03-12T06:56:12;3.83;;;1.75;;
76712;SDS011;65640;43.154;25.658;2023-03-12T06:58:38;2.25;;;2.13;;
76712;SDS011;65640;43.154;25.658;2023-03-12T07:01:04;1.77;;;1.67;;
76712;SDS011;65640;43.154;25.658;2023-03-12T07:03:30;4.35;;;1.33;;
76712;SDS011;65640;43.154;25.658;2023-03-12T07:05:56;2.83;;;1.70;;
76712;SDS011;65640;43.154;25.658;2023-03-12T07:08:23;2.65;;;1.92;;
76712;SDS011;65640;43.154;25.658;2023-03-12T07:10:49;6.28;;;1.70;;
76712;SDS011;65640;43.154;25.658;2023-03-12T07:13:14;1.00;;;0.90;;
76712;SDS011;65640;43.154;25.658;2023-03-12T07:15:40;3.55;;;1.50;;
76712;SDS011;65640;43.154;25.658;2023-03-12T07:18:06;2.22;;;2.03;;
76712;SDS011;65640;43.154;25.658;2023-03-12T07:23:00;1.30;;;1.20;;
76712;SDS011;65640;43.154;25.658;2023-03-12T07:25:25;2.35;;;1.90;;
76712;SDS011;65640;43.154;25.658;2023-03-12T07:27:51;1.70;;;1.45;;
76712;SDS011;65640;43.154;25.658;2023-03-12T07:30:17;2.90;;;1.42;;
76712;SDS011;65640;43.154;25.658;2023-03-12T07:32:42;3.28;;;1.15;;
76712;SDS011;65640;43.154;25.658;2023-03-12T07:35:08;1.75;;;1.65;;
76712;SDS011;65640;43.154;25.658;2023-03-12T07:37:33;2.88;;;2.45;;
76712;SDS011;65640;43.154;25.658;2023-03-12T07:39:59;3.10;;;2.35;;
76712;SDS011;65640;43.154;25.658;2023-03-12T07:42:24;2.63;;;2.17;;
76712;SDS011;65640;43.154;25.658;2023-03-12T07:44:50;5.00;;;2.80;;
76712;SDS011;65640;43.154;25.658;2023-03-12T07:47:15;3.40;;;2.42;;
76712;SDS011;65640;43.154;25.658;2023-03-12T07:49:41;2.83;;;2.30;;
76712;SDS011;65640;43.154;25.658;2023-03-12T07:52:07;4.72;;;1.90;;
76712;SDS011;65640;43.154;25.658;2023-03-12T07:54:36;2.30;;;1.13;;
76712;SDS011;65640;43.154;25.658;2023-03-12T07:57:02;1.60;;;1.50;;
76712;SDS011;65640;43.154;25.658;2023-03-12T07:59:28;2.70;;;1.67;;
76712;SDS011;65640;43.154;25.658;2023-03-12T08:01:53;2.00;;;1.90;;
76712;SDS011;65640;43.154;25.658;2023-03-12T08:04:19;3.22;;;1.65;;
76712;SDS011;65640;43.154;25.658;2023-03-12T08:06:45;1.73;;;1.63;;
76712;SDS011;65640;43.154;25.658;2023-03-12T08:09:10;5.43;;;2.17;;
76712;SDS011;65640;43.154;25.658;2023-03-12T08:11:36;2.60;;;1.75;;
76712;SDS011;65640;43.154;25.658;2023-03-12T08:14:02;2.78;;;1.88;;
76712;SDS011;65640;43.154;25.658;2023-03-12T08:16:29;2.20;;;2.03;;
76712;SDS011;65640;43.154;25.658;2023-03-12T08:18:54;1.67;;;1.58;;
76712;SDS011;65640;43.154;25.658;2023-03-12T08:21:20;4.15;;;2.72;;
76712;SDS011;65640;43.154;25.658;2023-03-12T08:23:47;2.28;;;1.90;;
76712;SDS011;65640;43.154;25.658;2023-03-12T08:26:12;1.50;;;1.40;;
76712;SDS011;65640;43.154;25.658;2023-03-12T08:28:38;2.63;;;1.77;;
76712;SDS011;65640;43.154;25.658;2023-03-12T08:31:04;1.60;;;1.10;;
76712;SDS011;65640;43.154;25.658;2023-03-12T08:33:30;4.50;;;2.60;;
76712;SDS011;65640;43.154;25.658;2023-03-12T08:35:55;3.90;;;1.98;;
76712;SDS011;65640;43.154;25.658;2023-03-12T08:38:21;2.63;;;1.58;;
76712;SDS011;65640;43.154;25.658;2023-03-12T08:40:53;1.90;;;1.77;;
76712;SDS011;65640;43.154;25.658;2023-03-12T08:43:19;2.63;;;2.20;;
76712;SDS011;65640;43.154;25.658;2023-03-12T08:45:44;6.03;;;2.38;;
76712;SDS011;65640;43.154;25.658;2023-03-12T08:48:10;6.13;;;1.83;;
76712;SDS011;65640;43.154;25.658;2023-03-12T08:50:35;2.13;;;2.03;;
76712;SDS011;65640;43.154;25.658;2023-03-12T08:53:01;5.90;;;1.52;;
76712;SDS011;65640;43.154;25.658;2023-03-12T08:55:26;2.15;;;1.95;;
76712;SDS011;65640;43.154;25.658;2023-03-12T08:57:52;1.85;;;1.75;;
76712;SDS011;65640;43.154;25.658;2023-03-12T09:00:18;2.25;;;1.80;;
76712;SDS011;65640;43.154;25.658;2023-03-12T09:02:44;1.85;;;1.75;;
76712;SDS011;65640;43.154;25.658;2023-03-12T09:05:10;3.30;;;1.77;;
76712;SDS011;65640;43.154;25.658;2023-03-12T09:07:37;1.73;;;1.63;;
76712;SDS011;65640;43.154;25.658;2023-03-12T09:10:02;1.75;;;1.63;;
76712;SDS011;65640;43.154;25.658;2023-03-12T09:12:28;1.55;;;1.45;;
76712;SDS011;65640;43.154;25.658;2023-03-12T09:14:54;1.50;;;1.40;;
76712;SDS011;65640;43.154;25.658;2023-03-12T09:17:19;2.00;;;1.90;;
76712;SDS011;65640;43.154;25.658;2023-03-12T09:19:45;3.83;;;1.85;;
76712;SDS011;65640;43.154;25.658;2023-03-12T09:22:10;1.77;;;1.67;;
76712;SDS011;65640;43.154;25.658;2023-03-12T09:24:36;1.60;;;1.50;;
76712;SDS011;65640;43.154;25.658;2023-03-12T09:27:02;3.42;;;1.38;;
76712;SDS011;65640;43.154;25.658;2023-03-12T09:29:29;3.13;;;1.85;;
76712;SDS011;65640;43.154;25.658;2023-03-12T09:31:55;2.60;;;2.40;;
76712;SDS011;65640;43.154;25.658;2023-03-12T09:34:20;2.60;;;1.70;;
76712;SDS011;65640;43.154;25.658;2023-03-12T09:36:46;3.13;;;1.60;;
76712;SDS011;65640;43.154;25.658;2023-03-12T09:39:11;1.60;;;1.50;;
76712;SDS011;65640;43.154;25.658;2023-03-12T09:41:37;1.40;;;1.30;;
76712;SDS011;65640;43.154;25.658;2023-03-12T09:49:33;2.55;;;1.58;;
76712;SDS011;65640;43.154;25.658;2023-03-12T09:52:05;1.75;;;1.65;;
76712;SDS011;65640;43.154;25.658;2023-03-12T09:54:43;3.38;;;1.67;;
76712;SDS011;65640;43.154;25.658;2023-03-12T09:57:32;2.30;;;2.10;;
76712;SDS011;65640;43.154;25.658;2023-03-12T09:59:58;1.80;;;1.70;;
76712;SDS011;65640;43.154;25.658;2023-03-12T10:05:46;2.83;;;2.53;;
76712;SDS011;65640;43.154;25.658;2023-03-12T10:26:48;5.30;;;1.90;;
76712;SDS011;65640;43.154;25.658;2023-03-12T10:29:15;1.92;;;1.77;;
76712;SDS011;65640;43.154;25.658;2023-03-12T10:40:09;2.40;;;2.20;;
76712;SDS011;65640;43.154;25.658;2023-03-12T10:42:39;2.53;;;2.30;;
76712;SDS011;65640;43.154;25.658;2023-03-12T10:47:39;1.60;;;1.50;;
76712;SDS011;65640;43.154;25.658;2023-03-12T10:52:49;2.67;;;2.47;;
76712;SDS011;65640;43.154;25.658;2023-03-12T10:55:23;2.78;;;1.67;;
76712;SDS011;65640;43.154;25.658;2023-03-12T10:57:51;1.75;;;1.65;;
76712;SDS011;65640;43.154;25.658;2023-03-12T11:00:22;2.10;;;1.90;;
76712;SDS011;65640;43.154;25.658;2023-03-12T11:02:56;1.65;;;1.55;;
76712;SDS011;65640;43.154;25.658;2023-03-12T11:05:47;2.22;;;2.03;;
76712;SDS011;65640;43.154;25.658;2023-03-12T11:08:22;2.40;;;2.17;;
76712;SDS011;65640;43.154;25.658;2023-03-12T11:10:51;3.00;;;2.67;;
76712;SDS011;65640;43.154;25.658;2023-03-12T11:15:47;2.00;;;1.67;;
76712;SDS011;65640;43.154;25.658;2023-03-12T11:18:18;3.70;;;3.40;;
76712;SDS011;65640;43.154;25.658;2023-03-12T11:23:42;2.22;;;2.13;;
76712;SDS011;65640;43.154;25.658;2023-03-12T11:28:38;2.00;;;1.90;;
76712;SDS011;65640;43.154;25.658;2023-03-12T11:31:07;3.38;;;1.77;;
76712;SDS011;65640;43.154;25.658;2023-03-12T11:33:38;2.10;;;1.90;;
76712;SDS011;65640;43.154;25.658;2023-03-12T11:39:25;2.47;;;1.83;;
76712;SDS011;65640;43.154;25.658;2023-03-12T11:50:17;3.95;;;2.35;;
76712;SDS011;65640;43.154;25.658;2023-03-12T11:52:56;1.70;;;1.60;;
76712;SDS011;65640;43.154;25.658;2023-03-12T12:03:37;2.08;;;1.98;;
76712;SDS011;65640;43.154;25.658;2023-03-12T12:14:28;1.40;;;1.30;;
76712;SDS011;65640;43.154;25.658;2023-03-12T12:33:59;1.10;;;1.10;;
76712;SDS011;65640;43.154;25.658;2023-03-12T12:36:30;1.50;;;1.40;;
76712;SDS011;65640;43.154;25.658;2023-03-12T12:39:00;4.40;;;1.70;;
76712;SDS011;65640;43.154;25.658;2023-03-12T12:41:33;1.85;;;1.75;;
76712;SDS011;65640;43.154;25.658;2023-03-12T12:44:09;1.63;;;1.50;;
76712;SDS011;65640;43.154;25.658;2023-03-12T12:46:39;2.65;;;2.45;;
76712;SDS011;65640;43.154;25.658;2023-03-12T12:51:49;2.35;;;1.60;;
76712;SDS011;65640;43.154;25.658;2023-03-12T12:56:59;2.95;;;1.60;;
76712;SDS011;65640;43.154;25.658;2023-03-12T12:59:31;1.98;;;1.77;;
76712;SDS011;65640;43.154;25.658;2023-03-12T13:01:58;1.50;;;1.40;;
76712;SDS011;65640;43.154;25.658;2023-03-12T13:04:28;1.55;;;1.45;;
76712;SDS011;65640;43.154;25.658;2023-03-12T13:07:03;2.28;;;1.40;;
76712;SDS011;65640;43.154;25.658;2023-03-12T13:09:45;1.85;;;1.58;;
76712;SDS011;65640;43.154;25.658;2023-03-12T13:14:49;1.45;;;1.35;;
76712;SDS011;65640;43.154;25.658;2023-03-12T13:19:48;2.00;;;1.80;;
76712;SDS011;65640;43.154;25.658;2023-03-12T13:24:53;1.50;;;1.40;;
76712;SDS011;65640;43.154;25.658;2023-03-12T13:27:30;1.83;;;1.73;;
76712;SDS011;65640;43.154;25.658;2023-03-12T13:30:52;3.20;;;2.20;;
76712;SDS011;65640;43.154;25.658;2023-03-12T13:33:10;1.67;;;1.58;;
76712;SDS011;65640;43.154;25.658;2023-03-12T13:35:38;1.90;;;1.80;;
76712;SDS011;65640;43.154;25.658;2023-03-12T13:38:05;1.90;;;1.80;;
76712;SDS011;65640;43.154;25.658;2023-03-12T13:40:52;2.08;;;1.98;;
76712;SDS011;65640;43.154;25.658;2023-03-12T13:46:05;4.03;;;1.88;;
76712;SDS011;65640;43.154;25.658;2023-03-12T13:48:43;1.60;;;1.50;;
76712;SDS011;65640;43.154;25.658;2023-03-12T13:51:13;1.60;;;1.50;;
76712;SDS011;65640;43.154;25.658;2023-03-12T13:53:42;4.28;;;2.17;;
76712;SDS011;65640;43.154;25.658;2023-03-12T13:56:15;1.90;;;1.75;;
76712;SDS011;65640;43.154;25.658;2023-03-12T13:59:03;3.30;;;1.70;;
76712;SDS011;65640;43.154;25.658;2023-03-12T14:01:36;3.28;;;1.55;;
76712;SDS011;65640;43.154;25.658;2023-03-12T14:04:06;1.65;;;1.48;;
76712;SDS011;65640;43.154;25.658;2023-03-12T14:06:46;2.42;;;2.15;;
76712;SDS011;65640;43.154;25.658;2023-03-12T14:09:26;2.72;;;2.38;;
76712;SDS011;65640;43.154;25.658;2023-03-12T14:17:22;2.35;;;2.05;;
76712;SDS011;65640;43.154;25.658;2023-03-12T14:19:59;13.73;;;7.18;;
76712;SDS011;65640;43.154;25.658;2023-03-12T14:22:30;2.80;;;2.60;;
76712;SDS011;65640;43.154;25.658;2023-03-12T14:25:00;5.22;;;2.65;;
76712;SDS011;65640;43.154;25.658;2023-03-12T14:27:31;1.60;;;1.45;;
76712;SDS011;65640;43.154;25.658;2023-03-12T14:30:03;4.13;;;1.90;;
76712;SDS011;65640;43.154;25.658;2023-03-12T14:32:36;2.40;;;2.20;;
76712;SDS011;65640;43.154;25.658;2023-03-12T14:35:16;25.10;;;5.55;;
76712;SDS011;65640;43.154;25.658;2023-03-12T14:38:29;10.13;;;5.75;;
76712;SDS011;65640;43.154;25.658;2023-03-12T14:45:50;4.57;;;3.08;;
76712;SDS011;65640;43.154;25.658;2023-03-12T14:48:21;2.20;;;2.03;;
76712;SDS011;65640;43.154;25.658;2023-03-12T14:50:48;1.95;;;1.75;;
76712;SDS011;65640;43.154;25.658;2023-03-12T14:53:18;3.47;;;3.17;;
76712;SDS011;65640;43.154;25.658;2023-03-12T14:55:57;2.80;;;2.60;;
76712;SDS011;65640;43.154;25.658;2023-03-12T14:58:23;2.10;;;2.00;;
76712;SDS011;65640;43.154;25.658;2023-03-12T15:00:53;2.58;;;1.80;;
76712;SDS011;65640;43.154;25.658;2023-03-12T15:03:22;5.35;;;3.75;;
76712;SDS011;65640;43.154;25.658;2023-03-12T15:05:48;3.90;;;3.28;;
76712;SDS011;65640;43.154;25.658;2023-03-12T15:08:14;6.63;;;3.03;;
76712;SDS011;65640;43.154;25.658;2023-03-12T15:10:46;3.80;;;2.80;;
76712;SDS011;65640;43.154;25.658;2023-03-12T15:13:16;4.20;;;2.83;;
76712;SDS011;65640;43.154;25.658;2023-03-12T15:15:45;2.20;;;1.98;;
76712;SDS011;65640;43.154;25.658;2023-03-12T15:18:16;2.35;;;2.25;;
76712;SDS011;65640;43.154;25.658;2023-03-12T15:20:45;1.90;;;1.80;;
76712;SDS011;65640;43.154;25.658;2023-03-12T15:23:12;2.50;;;2.00;;
76712;SDS011;65640;43.154;25.658;2023-03-12T15:25:39;3.63;;;2.60;;
76712;SDS011;65640;43.154;25.658;2023-03-12T15:28:06;3.55;;;2.47;;
76712;SDS011;65640;43.154;25.658;2023-03-12T15:31:02;4.40;;;2.13;;
76712;SDS011;65640;43.154;25.658;2023-03-12T15:33:32;2.92;;;2.72;;
76712;SDS011;65640;43.154;25.658;2023-03-12T15:38:29;5.72;;;3.40;;
76712;SDS011;65640;43.154;25.658;2023-03-12T15:40:58;9.95;;;4.45;;
76712;SDS011;65640;43.154;25.658;2023-03-12T15:43:30;5.13;;;3.42;;
76712;SDS011;65640;43.154;25.658;2023-03-12T15:45:59;5.20;;;3.70;;
76712;SDS011;65640;43.154;25.658;2023-03-12T15:48:31;3.08;;;2.65;;
76712;SDS011;65640;43.154;25.658;2023-03-12T15:50:58;5.43;;;2.55;;
76712;SDS011;65640;43.154;25.658;2023-03-12T15:53:28;3.38;;;3.08;;
76712;SDS011;65640;43.154;25.658;2023-03-12T15:58:31;10.02;;;4.45;;
76712;SDS011;65640;43.154;25.658;2023-03-12T16:01:05;11.80;;;5.63;;
76712;SDS011;65640;43.154;25.658;2023-03-12T16:03:32;7.47;;;4.68;;
76712;SDS011;65640;43.154;25.658;2023-03-12T16:05:58;3.75;;;3.35;;
76712;SDS011;65640;43.154;25.658;2023-03-12T16:08:24;6.72;;;4.53;;
76712;SDS011;65640;43.154;25.658;2023-03-12T16:10:55;3.50;;;3.20;;
76712;SDS011;65640;43.154;25.658;2023-03-12T16:13:21;3.40;;;3.00;;
76712;SDS011;65640;43.154;25.658;2023-03-12T16:15:52;4.88;;;3.53;;
76712;SDS011;65640;43.154;25.658;2023-03-12T16:18:19;5.80;;;3.63;;
76712;SDS011;65640;43.154;25.658;2023-03-12T16:20:47;3.20;;;2.30;;
76712;SDS011;65640;43.154;25.658;2023-03-12T16:28:09;2.88;;;2.58;;
76712;SDS011;65640;43.154;25.658;2023-03-12T16:30:37;3.25;;;2.65;;
76712;SDS011;65640;43.154;25.658;2023-03-12T16:33:03;2.50;;;2.30;;
76712;SDS011;65640;43.154;25.658;2023-03-12T16:35:29;4.32;;;2.50;;
76712;SDS011;65640;43.154;25.658;2023-03-12T16:37:56;2.83;;;2.10;;
76712;SDS011;65640;43.154;25.658;2023-03-12T16:40:26;2.88;;;2.58;;
76712;SDS011;65640;43.154;25.658;2023-03-12T16:42:52;3.33;;;2.90;;
76712;SDS011;65640;43.154;25.658;2023-03-12T16:45:18;8.20;;;4.55;;
76712;SDS011;65640;43.154;25.658;2023-03-12T16:47:45;5.97;;;4.85;;
76712;SDS011;65640;43.154;25.658;2023-03-12T16:50:18;6.78;;;5.30;;
76712;SDS011;65640;43.154;25.658;2023-03-12T16:52:46;5.75;;;5.03;;
76712;SDS011;65640;43.154;25.658;2023-03-12T16:55:13;6.40;;;4.68;;
76712;SDS011;65640;43.154;25.658;2023-03-12T16:57:40;9.60;;;5.68;;
76712;SDS011;65640;43.154;25.658;2023-03-12T17:00:18;8.63;;;5.65;;
76712;SDS011;65640;43.154;25.658;2023-03-12T17:02:46;10.00;;;5.63;;
76712;SDS011;65640;43.154;25.658;2023-03-12T17:05:12;10.93;;;5.35;;
76712;SDS011;65640;43.154;25.658;2023-03-12T17:07:38;7.45;;;5.15;;
76712;SDS011;65640;43.154;25.658;2023-03-12T17:10:04;6.35;;;5.55;;